createdAt,value
2023-03-26T00:01:40.477Z,8.90
2023-03-26T00:04:07.803Z,8.90
2023-03-26T00:06:38.896Z,8.90
2023-03-26T00:09:07.299Z,8.90
2023-03-26T00:11:34.168Z,8.90
2023-03-26T00:14:02.736Z,8.90
2023-03-26T00:16:31.211Z,8.90
2023-03-26T00:18:58.322Z,8.80
2023-03-26T00:21:29.144Z,8.90
2023-03-26T00:23:58.560Z,8.80
2023-03-26T00:26:27.544Z,8.80
2023-03-26T00:28:54.757Z,8.80
2023-03-26T00:31:21.616Z,8.80
2023-03-26T00:33:48.363Z,8.80
2023-03-26T00:36:17.349Z,8.70
2023-03-26T00:38:44.943Z,8.80
2023-03-26T00:41:23.199Z,8.80
2023-03-26T00:43:51.426Z,8.80
2023-03-26T00:46:18.594Z,8.80
2023-03-26T00:48:46.347Z,8.80
2023-03-26T00:51:15.522Z,8.80
2023-03-26T00:53:43.394Z,8.80
2023-03-26T00:56:10.178Z,8.80
2023-03-26T00:58:37.215Z,8.80
2023-03-26T01:01:06.313Z,8.70
2023-03-26T01:03:35.104Z,8.70
2023-03-26T01:06:04.946Z,8.70
2023-03-26T01:08:35.493Z,8.80
2023-03-26T01:11:13.959Z,8.80
2023-03-26T01:13:44.655Z,8.80
2023-03-26T01:16:20.441Z,8.80
2023-03-26T01:18:48.679Z,8.80
2023-03-26T01:21:22.594Z,8.70
2023-03-26T01:23:55.729Z,8.70
2023-03-26T01:26:34.102Z,8.70
2023-03-26T01:29:02.753Z,8.70
2023-03-26T01:31:56.010Z,8.70
2023-03-26T01:34:41.508Z,8.70
2023-03-26T01:37:13.228Z,8.70
2023-03-26T01:39:49.213Z,8.70
2023-03-26T01:42:20.237Z,8.60
2023-03-26T01:44:49.834Z,8.70
2023-03-26T01:47:17.758Z,8.60
2023-03-26T01:49:44.454Z,8.60
2023-03-26T01:52:22.348Z,8.60
2023-03-26T01:54:49.430Z,8.60
2023-03-26T01:57:16.436Z,8.60
2023-03-26T02:00:01.972Z,8.50
2023-03-26T02:02:46.998Z,8.60
2023-03-26T02:05:26.675Z,8.60
2023-03-26T02:07:53.407Z,8.60
2023-03-26T02:10:26.099Z,8.60
2023-03-26T02:12:53.257Z,8.60
2023-03-26T02:15:20.400Z,8.60
2023-03-26T02:17:47.191Z,8.60
2023-03-26T02:20:14.627Z,8.50
2023-03-26T02:22:45.682Z,8.60
2023-03-26T02:25:14.481Z,8.60
2023-03-26T02:27:41.568Z,8.60
2023-03-26T02:30:09.754Z,8.60
2023-03-26T02:32:36.874Z,8.50
2023-03-26T02:35:05.487Z,8.50
2023-03-26T02:37:34.023Z,8.50
2023-03-26T02:40:00.950Z,8.40
2023-03-26T02:42:27.799Z,8.50
2023-03-26T02:44:54.547Z,8.50
2023-03-26T02:47:21.303Z,8.60
2023-03-26T02:49:48.019Z,8.50
2023-03-26T02:52:17.162Z,8.50
2023-03-26T02:54:44.140Z,8.50
2023-03-26T02:57:11.205Z,8.50
2023-03-26T02:59:38.325Z,8.40
2023-03-26T03:02:05.109Z,8.40
2023-03-26T03:04:31.877Z,8.40
2023-03-26T03:06:59.946Z,8.50
2023-03-26T03:09:26.702Z,8.60
2023-03-26T03:11:53.520Z,8.50
2023-03-26T03:14:20.655Z,8.50
2023-03-26T03:16:47.477Z,8.50
2023-03-26T03:19:14.559Z,8.50
2023-03-26T03:21:42.104Z,8.50
2023-03-26T03:24:09.705Z,8.60
2023-03-26T03:26:36.594Z,8.60
2023-03-26T03:29:03.578Z,8.60
2023-03-26T03:31:30.375Z,8.60
2023-03-26T03:33:57.075Z,8.50
2023-03-26T03:36:23.955Z,8.50
2023-03-26T03:38:51.257Z,8.50
2023-03-26T03:41:19.423Z,8.50
2023-03-26T03:43:46.384Z,8.50
2023-03-26T03:46:13.248Z,8.60
2023-03-26T03:48:40.229Z,8.60
2023-03-26T03:51:06.998Z,8.50
2023-03-26T03:53:37.172Z,8.50
2023-03-26T03:56:04.665Z,8.40
2023-03-26T03:58:31.601Z,8.40
2023-03-26T04:01:00.946Z,8.40
2023-03-26T04:03:33.823Z,8.40
2023-03-26T04:06:01.468Z,8.50
2023-03-26T04:08:28.272Z,8.50
2023-03-26T04:10:55.021Z,8.40
2023-03-26T04:13:22.081Z,8.50
2023-03-26T04:15:48.805Z,8.40
2023-03-26T04:18:15.762Z,8.30
2023-03-26T04:20:46.490Z,8.30
2023-03-26T04:23:14.339Z,8.40
2023-03-26T04:25:50.435Z,8.40
2023-03-26T04:28:23.435Z,8.40
2023-03-26T04:30:53.767Z,8.40
2023-03-26T04:33:21.132Z,8.40
2023-03-26T04:35:51.087Z,8.40
2023-03-26T04:38:18.553Z,8.50
2023-03-26T04:40:47.523Z,8.50
2023-03-26T04:43:16.392Z,8.50
2023-03-26T04:45:43.821Z,8.50
2023-03-26T04:48:14.399Z,8.50
2023-03-26T04:50:45.354Z,8.50
2023-03-26T04:53:13.896Z,8.50
2023-03-26T04:55:58.936Z,8.40
2023-03-26T04:58:33.188Z,8.50
2023-03-26T05:01:09.981Z,8.40
2023-03-26T05:03:38.925Z,8.50
2023-03-26T05:06:05.803Z,8.50
2023-03-26T05:08:32.614Z,8.50
2023-03-26T05:10:59.302Z,8.50
2023-03-26T05:13:26.054Z,8.50
2023-03-26T05:15:52.869Z,8.50
2023-03-26T05:18:19.668Z,8.60
2023-03-26T05:20:46.568Z,8.60
2023-03-26T05:23:13.320Z,8.50
2023-03-26T05:25:40.060Z,8.50
2023-03-26T05:28:06.792Z,8.60
2023-03-26T05:30:33.511Z,8.50
2023-03-26T05:33:00.757Z,8.50
2023-03-26T05:35:27.660Z,8.50
2023-03-26T05:37:54.397Z,8.50
2023-03-26T05:40:21.506Z,8.50
2023-03-26T05:42:48.318Z,8.50
2023-03-26T05:45:15.419Z,8.60
2023-03-26T05:47:42.283Z,8.50
2023-03-26T05:50:10.029Z,8.60
2023-03-26T05:52:36.841Z,8.60
2023-03-26T05:55:03.629Z,8.70
2023-03-26T05:57:30.963Z,8.60
2023-03-26T05:59:57.844Z,8.70
2023-03-26T06:02:24.679Z,8.70
2023-03-26T06:04:51.597Z,8.80
2023-03-26T06:07:18.853Z,8.80
2023-03-26T06:09:45.869Z,8.80
2023-03-26T06:12:12.636Z,8.90
2023-03-26T06:14:39.439Z,8.90
2023-03-26T06:17:06.234Z,9.00
2023-03-26T06:19:32.964Z,9.00
2023-03-26T06:21:59.720Z,9.00
2023-03-26T06:24:26.495Z,9.00
2023-03-26T06:26:53.370Z,9.00
2023-03-26T06:29:20.614Z,9.00
2023-03-26T06:31:47.428Z,9.00
2023-03-26T06:34:14.351Z,9.10
2023-03-26T06:36:41.193Z,9.00
2023-03-26T06:39:08.230Z,9.00
2023-03-26T06:41:35.523Z,9.10
2023-03-26T06:44:02.319Z,9.10
2023-03-26T06:46:30.439Z,9.00
2023-03-26T06:48:57.172Z,9.10
2023-03-26T06:51:23.914Z,9.10
2023-03-26T06:53:50.675Z,9.00
2023-03-26T06:56:17.417Z,9.00
2023-03-26T06:58:44.184Z,9.00
2023-03-26T07:01:11.445Z,9.00
2023-03-26T07:03:38.249Z,9.00
2023-03-26T07:06:05.232Z,9.00
2023-03-26T07:08:32.169Z,9.00
2023-03-26T07:10:58.992Z,9.00
2023-03-26T07:13:26.161Z,9.00
2023-03-26T07:15:52.857Z,9.10
2023-03-26T07:18:19.591Z,9.20
2023-03-26T07:20:46.523Z,9.20
2023-03-26T07:23:15.617Z,9.20
2023-03-26T07:25:42.480Z,9.20
2023-03-26T07:29:04.694Z,9.10
2023-03-26T07:31:37.466Z,9.10
2023-03-26T07:34:13.201Z,9.10
2023-03-26T07:36:43.575Z,9.00
2023-03-26T07:39:10.762Z,9.10
2023-03-26T07:41:51.109Z,9.20
2023-03-26T07:44:35.643Z,9.20
2023-03-26T07:47:09.756Z,9.20
2023-03-26T07:49:37.661Z,9.40
2023-03-26T07:52:05.279Z,9.50
2023-03-26T07:54:32.131Z,9.70
2023-03-26T07:57:04.988Z,9.80
2023-03-26T07:59:37.142Z,9.90
2023-03-26T08:02:14.821Z,10.00
2023-03-26T08:05:10.562Z,10.00
2023-03-26T08:07:41.391Z,10.10
2023-03-26T08:10:17.445Z,10.00
2023-03-26T08:12:50.436Z,9.90
2023-03-26T08:15:21.840Z,9.90
2023-03-26T08:17:57.083Z,9.90
2023-03-26T08:20:41.550Z,9.90
2023-03-26T08:23:13.843Z,9.90
2023-03-26T08:26:02.574Z,9.80
2023-03-26T08:28:32.344Z,9.80
2023-03-26T08:31:02.928Z,9.90
2023-03-26T08:33:30.765Z,10.00
2023-03-26T08:35:57.781Z,10.00
2023-03-26T08:38:24.569Z,10.00
2023-03-26T08:41:03.584Z,9.90
2023-03-26T08:43:39.478Z,10.00
2023-03-26T08:46:25.069Z,10.00
2023-03-26T08:48:54.611Z,10.00
2023-03-26T08:51:40.090Z,10.00
2023-03-26T08:54:25.590Z,10.00
2023-03-26T08:56:57.505Z,10.00
2023-03-26T08:59:27.325Z,10.00
2023-03-26T09:01:54.096Z,10.00
2023-03-26T09:04:28.795Z,10.10
2023-03-26T09:07:23.505Z,10.20
2023-03-26T09:09:53.038Z,10.30
2023-03-26T09:12:28.868Z,10.30
2023-03-26T09:14:58.301Z,10.50
2023-03-26T09:17:28.180Z,10.60
2023-03-26T09:20:04.056Z,10.80
2023-03-26T09:22:33.624Z,10.90
2023-03-26T09:25:10.548Z,11.10
2023-03-26T09:27:37.344Z,11.20
2023-03-26T09:30:24.309Z,11.10
2023-03-26T09:32:56.869Z,11.00
2023-03-26T09:35:47.578Z,11.00
2023-03-26T09:38:29.433Z,10.80
2023-03-26T09:41:02.688Z,10.80
2023-03-26T09:43:48.823Z,10.80
2023-03-26T09:46:18.353Z,10.90
2023-03-26T09:49:04.607Z,11.00
2023-03-26T09:51:31.463Z,11.00
2023-03-26T09:54:18.194Z,11.00
2023-03-26T09:56:47.693Z,11.00
2023-03-26T09:59:32.948Z,10.90
2023-03-26T10:02:11.911Z,10.70
2023-03-26T10:04:59.776Z,10.60
2023-03-26T10:07:27.076Z,10.70
2023-03-26T10:09:56.846Z,10.70
2023-03-26T10:12:32.437Z,10.70
2023-03-26T10:15:17.661Z,10.80
2023-03-26T10:17:47.368Z,11.00
2023-03-26T10:20:29.178Z,11.10
2023-03-26T10:23:14.730Z,11.10
2023-03-26T10:25:44.780Z,11.10
2023-03-26T10:28:30.108Z,11.20
2023-03-26T10:31:15.344Z,11.30
2023-03-26T10:33:52.241Z,11.20
2023-03-26T10:36:29.891Z,11.30
2023-03-26T10:38:59.563Z,11.30
2023-03-26T10:41:41.702Z,11.30
2023-03-26T10:44:09.178Z,11.20
2023-03-26T10:46:36.152Z,10.60
2023-03-26T10:49:21.546Z,10.20
2023-03-26T10:51:54.778Z,9.90
2023-03-26T10:54:31.307Z,9.60
2023-03-26T10:56:58.411Z,9.30
2023-03-26T10:59:27.051Z,9.20
2023-03-26T11:01:53.800Z,9.20
2023-03-26T11:04:20.634Z,9.20
2023-03-26T11:06:47.419Z,9.20
2023-03-26T11:09:32.736Z,9.50
2023-03-26T11:12:26.532Z,9.80
2023-03-26T11:15:07.576Z,10.20
2023-03-26T11:17:43.421Z,10.70
2023-03-26T11:20:19.510Z,10.80
2023-03-26T11:23:08.309Z,11.00
2023-03-26T11:25:38.969Z,11.00
2023-03-26T11:28:24.062Z,11.10
2023-03-26T11:30:55.913Z,11.00
2023-03-26T11:33:24.752Z,11.10
2023-03-26T11:35:54.076Z,11.10
2023-03-26T11:38:32.891Z,11.30
2023-03-26T11:41:01.265Z,11.50
2023-03-26T11:43:30.911Z,11.60
2023-03-26T11:45:57.861Z,11.70
2023-03-26T11:48:30.466Z,11.70
2023-03-26T11:51:12.948Z,11.80
2023-03-26T11:53:39.729Z,11.80
2023-03-26T11:56:15.126Z,11.80
2023-03-26T11:58:57.209Z,11.80
2023-03-26T12:01:30.006Z,11.60
2023-03-26T12:03:58.739Z,11.50
2023-03-26T12:06:27.482Z,11.50
2023-03-26T12:08:54.459Z,11.30
2023-03-26T12:11:24.600Z,11.40
2023-03-26T12:13:52.811Z,11.50
2023-03-26T12:16:21.049Z,11.60
2023-03-26T12:18:57.994Z,11.80
2023-03-26T12:21:24.767Z,12.00
2023-03-26T12:23:56.290Z,12.10
2023-03-26T12:26:44.995Z,12.20
2023-03-26T12:29:13.132Z,12.00
2023-03-26T12:31:45.939Z,12.00
2023-03-26T12:34:17.261Z,11.90
2023-03-26T12:36:54.771Z,11.90
2023-03-26T12:40:07.284Z,11.80
2023-03-26T12:44:49.800Z,11.90
2023-03-26T12:45:14.430Z,12.10
2023-03-26T12:47:57.412Z,12.00
2023-03-26T12:50:57.252Z,12.00
2023-03-26T12:53:24.253Z,11.80
2023-03-26T12:56:10.214Z,11.70
2023-03-26T12:58:51.204Z,11.70
2023-03-26T13:01:47.440Z,11.60
2023-03-26T13:04:40.255Z,11.50
2023-03-26T13:07:10.839Z,11.30
2023-03-26T13:09:51.706Z,11.10
2023-03-26T13:12:23.071Z,11.00
2023-03-26T13:14:59.812Z,11.00
2023-03-26T13:17:34.434Z,11.00
2023-03-26T13:20:07.184Z,11.00
2023-03-26T13:22:46.648Z,11.00
2023-03-26T13:25:49.010Z,10.90
2023-03-26T13:28:18.663Z,10.60
2023-03-26T13:31:04.273Z,10.30
2023-03-26T13:33:35.955Z,10.30
2023-03-26T13:36:22.381Z,10.20
2023-03-26T13:38:58.823Z,10.10
2023-03-26T13:41:30.061Z,10.30
2023-03-26T13:44:04.026Z,10.40
2023-03-26T13:46:30.988Z,10.50
2023-03-26T13:48:59.184Z,10.80
2023-03-26T13:51:41.062Z,11.00
2023-03-26T13:54:16.967Z,11.10
2023-03-26T13:56:47.051Z,11.20
2023-03-26T13:59:13.872Z,11.30
2023-03-26T14:01:46.095Z,11.20
2023-03-26T14:04:13.013Z,11.40
2023-03-26T14:06:43.516Z,11.40
2023-03-26T14:09:13.070Z,11.10
2023-03-26T14:11:58.243Z,10.80
2023-03-26T14:14:27.779Z,10.60
2023-03-26T14:16:59.957Z,10.60
2023-03-26T14:19:33.737Z,10.60
2023-03-26T14:22:16.007Z,10.70
2023-03-26T14:24:42.704Z,10.70
2023-03-26T14:27:24.480Z,10.80
2023-03-26T14:29:59.548Z,10.70
2023-03-26T14:32:44.982Z,10.80
2023-03-26T14:35:14.730Z,10.70
2023-03-26T14:37:44.322Z,10.80
2023-03-26T14:40:17.291Z,10.90
2023-03-26T14:42:54.459Z,11.00
2023-03-26T14:45:41.718Z,11.00
2023-03-26T14:48:11.683Z,11.10
2023-03-26T14:50:47.800Z,11.00
2023-03-26T14:53:28.723Z,10.80
2023-03-26T14:56:15.580Z,11.10
2023-03-26T14:59:02.725Z,10.90
2023-03-26T15:01:44.494Z,10.80
2023-03-26T15:04:29.338Z,10.70
2023-03-26T15:07:15.337Z,10.40
2023-03-26T15:10:01.178Z,10.30
2023-03-26T15:12:32.446Z,10.30
2023-03-26T15:15:18.099Z,10.20
2023-03-26T15:17:44.881Z,10.00
2023-03-26T15:20:32.023Z,10.00
2023-03-26T15:22:58.816Z,10.00
2023-03-26T15:25:44.054Z,10.30
2023-03-26T15:28:16.899Z,10.70
2023-03-26T15:31:03.647Z,10.90
2023-03-26T15:33:30.324Z,10.60
2023-03-26T15:36:15.677Z,10.30
2023-03-26T15:39:01.321Z,10.20
2023-03-26T15:42:06.466Z,10.00
2023-03-26T15:44:53.939Z,10.10
2023-03-26T15:47:40.210Z,10.10
2023-03-26T15:50:18.937Z,10.10
2023-03-26T15:53:03.965Z,10.20
2023-03-26T15:55:40.267Z,10.10
2023-03-26T15:58:07.840Z,10.00
2023-03-26T16:00:35.929Z,10.00
2023-03-26T16:03:09.414Z,9.90
2023-03-26T16:05:39.004Z,10.00
2023-03-26T16:08:24.575Z,10.00
2023-03-26T16:10:54.121Z,10.00
2023-03-26T16:13:30.593Z,10.10
2023-03-26T16:16:09.599Z,10.10
2023-03-26T16:18:48.438Z,9.90
2023-03-26T16:21:32.832Z,9.90
2023-03-26T16:24:02.586Z,9.90
2023-03-26T16:26:44.534Z,9.70
2023-03-26T16:29:14.553Z,9.70
2023-03-26T16:31:57.869Z,9.80
2023-03-26T16:34:30.206Z,9.70
2023-03-26T16:36:59.090Z,9.60
2023-03-26T16:39:38.324Z,9.60
2023-03-26T16:42:21.187Z,9.70
2023-03-26T16:45:06.506Z,9.60
2023-03-26T16:47:42.609Z,9.40
2023-03-26T16:50:12.569Z,9.50
2023-03-26T16:52:42.889Z,9.40
2023-03-26T16:55:15.464Z,9.40
2023-03-26T16:58:03.088Z,9.30
2023-03-26T17:00:33.176Z,9.30
2023-03-26T17:03:15.160Z,9.00
2023-03-26T17:05:51.209Z,9.00
2023-03-26T17:08:35.419Z,8.90
2023-03-26T17:11:06.767Z,8.90
2023-03-26T17:13:42.957Z,8.90
2023-03-26T17:16:17.908Z,8.90
2023-03-26T17:18:50.809Z,9.00
2023-03-26T17:21:46.148Z,9.00
2023-03-26T17:24:32.490Z,9.00
2023-03-26T17:26:59.228Z,9.10
2023-03-26T17:29:44.930Z,9.10
2023-03-26T17:32:14.931Z,9.10
2023-03-26T17:34:47.042Z,9.10
2023-03-26T17:37:17.051Z,9.10
2023-03-26T17:39:43.790Z,9.10
2023-03-26T17:42:13.882Z,9.00
2023-03-26T17:44:42.453Z,9.00
2023-03-26T17:47:23.303Z,9.00
2023-03-26T17:49:51.251Z,9.00
2023-03-26T17:52:21.337Z,9.00
2023-03-26T17:54:50.248Z,9.00
2023-03-26T17:57:26.869Z,9.00
2023-03-26T17:59:57.111Z,9.10
2023-03-26T18:02:33.085Z,9.00
2023-03-26T18:05:01.229Z,9.10
2023-03-26T18:07:44.093Z,8.90
2023-03-26T18:10:22.804Z,9.00
2023-03-26T18:12:58.530Z,9.00
2023-03-26T18:15:25.321Z,8.90
2023-03-26T18:17:56.226Z,8.90
2023-03-26T18:20:27.660Z,8.80
2023-03-26T18:22:55.024Z,8.90
2023-03-26T18:25:23.568Z,8.90
2023-03-26T18:27:50.336Z,8.90
2023-03-26T18:30:19.136Z,8.90
2023-03-26T18:32:52.693Z,8.80
2023-03-26T18:35:20.834Z,8.70
2023-03-26T18:37:49.868Z,8.70
2023-03-26T18:40:19.442Z,8.70
2023-03-26T18:42:51.766Z,8.90
2023-03-26T18:45:38.948Z,8.90
2023-03-26T18:48:24.771Z,9.00
2023-03-26T18:50:53.654Z,9.00
2023-03-26T18:53:22.426Z,9.00
2023-03-26T18:55:50.736Z,9.00
2023-03-26T18:58:31.406Z,9.00
2023-03-26T19:01:05.945Z,9.00
2023-03-26T19:03:38.345Z,8.90
2023-03-26T19:06:08.372Z,8.90
2023-03-26T19:08:35.916Z,8.90
2023-03-26T19:11:04.806Z,8.90
2023-03-26T19:13:32.466Z,8.80
2023-03-26T19:15:59.292Z,8.80
2023-03-26T19:18:27.677Z,8.70
2023-03-26T19:20:57.141Z,8.70
2023-03-26T19:23:28.726Z,8.70
2023-03-26T19:25:56.235Z,8.70
2023-03-26T19:28:27.933Z,8.70
2023-03-26T19:30:56.389Z,8.70
2023-03-26T19:33:23.592Z,8.70
2023-03-26T19:35:59.974Z,8.60
2023-03-26T19:38:28.469Z,8.60
2023-03-26T19:40:56.689Z,8.60
2023-03-26T19:43:26.967Z,8.50
2023-03-26T19:46:00.334Z,8.60
2023-03-26T19:48:46.219Z,8.60
2023-03-26T19:51:22.189Z,8.60
2023-03-26T19:53:53.050Z,8.50
2023-03-26T19:56:21.372Z,8.50
2023-03-26T19:58:48.745Z,8.40
2023-03-26T20:01:19.967Z,8.50
2023-03-26T20:03:48.116Z,8.40
2023-03-26T20:06:16.474Z,8.40
2023-03-26T20:08:43.829Z,8.50
2023-03-26T20:11:20.558Z,8.30
2023-03-26T20:13:47.570Z,8.40
2023-03-26T20:16:18.276Z,8.40
2023-03-26T20:18:44.988Z,8.20
2023-03-26T20:21:12.483Z,8.30
2023-03-26T20:23:39.959Z,8.40
2023-03-26T20:26:09.969Z,8.40
2023-03-26T20:28:47.271Z,8.50
2023-03-26T20:31:17.486Z,8.60
2023-03-26T20:33:44.244Z,8.50
2023-03-26T20:36:14.282Z,8.40
2023-03-26T20:39:01.226Z,8.50
2023-03-26T20:41:29.062Z,8.40
2023-03-26T20:43:55.728Z,8.50
2023-03-26T20:46:23.445Z,8.50
2023-03-26T20:48:58.856Z,8.40
2023-03-26T20:51:28.242Z,8.40
2023-03-26T20:53:55.669Z,8.40
2023-03-26T20:56:22.790Z,8.40
2023-03-26T20:58:54.739Z,8.40
2023-03-26T21:01:27.923Z,8.40
2023-03-26T21:03:54.788Z,8.40
2023-03-26T21:06:21.482Z,8.40
2023-03-26T21:08:48.380Z,8.40
2023-03-26T21:11:38.534Z,8.30
2023-03-26T21:14:09.712Z,8.30
2023-03-26T21:16:37.363Z,8.40
2023-03-26T21:19:04.504Z,8.40
2023-03-26T21:21:49.733Z,8.40
2023-03-26T21:24:24.846Z,8.30
2023-03-26T21:26:57.876Z,8.30
2023-03-26T21:29:24.733Z,8.30
2023-03-26T21:31:54.023Z,8.30
2023-03-26T21:34:22.303Z,8.30
2023-03-26T21:36:49.227Z,8.20
2023-03-26T21:39:16.543Z,8.10
2023-03-26T21:41:46.913Z,8.10
2023-03-26T21:44:18.297Z,8.20
2023-03-26T21:46:46.298Z,8.10
2023-03-26T21:49:13.990Z,8.10
2023-03-26T21:51:41.080Z,8.10
2023-03-26T21:54:22.407Z,8.10
2023-03-26T21:57:06.103Z,8.10
2023-03-26T21:59:42.029Z,8.00
2023-03-26T22:02:08.772Z,8.10
2023-03-26T22:04:55.784Z,8.10
2023-03-26T22:07:42.721Z,7.90
2023-03-26T22:10:09.488Z,8.00
2023-03-26T22:12:36.277Z,8.10
2023-03-26T22:15:04.581Z,8.00
2023-03-26T22:17:32.655Z,8.00
2023-03-26T22:20:01.243Z,8.00
2023-03-26T22:22:28.376Z,8.00
2023-03-26T22:24:55.116Z,8.00
2023-03-26T22:27:21.809Z,8.00
2023-03-26T22:29:48.523Z,7.90
2023-03-26T22:32:15.544Z,8.00
2023-03-26T22:34:42.224Z,7.90
2023-03-26T22:37:09.010Z,7.90
2023-03-26T22:39:36.159Z,7.90
2023-03-26T22:42:03.842Z,7.90
2023-03-26T22:44:31.296Z,7.90
2023-03-26T22:46:57.966Z,7.90
2023-03-26T22:49:30.226Z,8.00
2023-03-26T22:51:57.135Z,7.90
2023-03-26T22:54:24.125Z,7.90
2023-03-26T22:56:52.392Z,7.90
2023-03-26T22:59:19.163Z,8.00
2023-03-26T23:01:46.524Z,7.90
2023-03-26T23:04:13.245Z,8.00
2023-03-26T23:06:58.500Z,8.00
2023-03-26T23:09:25.285Z,8.00
2023-03-26T23:11:52.129Z,8.00
2023-03-26T23:14:19.122Z,8.00
2023-03-26T23:16:45.838Z,8.00
2023-03-26T23:19:12.596Z,8.00
2023-03-26T23:21:39.985Z,8.10
2023-03-26T23:24:06.883Z,8.00
2023-03-26T23:26:43.970Z,8.00
2023-03-26T23:29:17.422Z,8.00
2023-03-26T23:31:44.226Z,8.00
2023-03-26T23:34:13.542Z,8.00
2023-03-26T23:36:41.814Z,8.00
2023-03-26T23:39:08.874Z,8.00
2023-03-26T23:41:35.649Z,8.00
2023-03-26T23:44:02.396Z,7.90
2023-03-26T23:46:33.207Z,7.90
2023-03-26T23:49:02.440Z,8.00
2023-03-26T23:51:30.361Z,7.90
2023-03-26T23:53:57.827Z,7.90
2023-03-26T23:56:24.651Z,7.90
2023-03-26T23:58:51.423Z,7.90
